Time;durP1;ratioP1;P1;durP2;ratioP2;P2;SDS_P1;SDS_P2;PMS_P1;PMS_P2;Temp;Humidity;BMP_temperature;BMP_pressure;BME280_temperature;BME280_humidity;BME280_pressure;Samples;Min_cycle;Max_cycle;Signal;HPM_P1;HPM_P2
2022/12/17 13:07:26;;;;;;;22.88;15.13;;;11.80;76.80;;;;;;4611598;19;21122;-32
2022/12/17 13:09:25;;;;;;;22.17;15.20;;;11.80;76.80;;;;;;4612257;19;20501;-30
2022/12/17 13:10:56;;;;;;;21.93;15.73;;;11.80;76.80;;;;;;4610617;19;20883;-30
2022/12/17 13:12:34;;;;;;;23.50;16.67;;;11.90;76.70;;;;;;4611070;19;20511;-31
2022/12/17 13:14:14;;;;;;;21.70;15.17;;;11.90;76.80;;;;;;4612025;19;20014;-33
2022/12/17 13:15:54;;;;;;;25.20;16.73;;;11.80;76.60;;;;;;4610912;19;20581;-30
2022/12/17 13:17:45;;;;;;;28.03;19.20;;;11.80;76.80;;;;;;4610261;19;20436;-32
2022/12/17 13:19:30;;;;;;;34.57;24.37;;;11.80;76.90;;;;;;4610143;19;20424;-29
2022/12/17 13:21:04;;;;;;;38.03;28.13;;;11.80;76.90;;;;;;4610598;19;20480;-29
2022/12/17 13:22:35;;;;;;;26.00;17.40;;;11.80;76.80;;;;;;4609695;19;20496;-32
2022/12/17 13:24:27;;;;;;;28.33;18.90;;;11.80;76.80;;;;;;4611062;19;20453;-32
2022/12/17 13:26:40;;;;;;;26.90;18.43;;;11.80;76.80;;;;;;4612524;19;20544;-34
2022/12/17 13:28:27;;;;;;;124.63;58.83;;;11.80;77.00;;;;;;4609615;19;20527;-30
2022/12/17 13:30:22;;;;;;;64.17;36.70;;;11.70;76.90;;;;;;4609791;19;20016;-31
2022/12/17 13:31:59;;;;;;;34.83;22.07;;;11.70;76.90;;;;;;4604409;19;20472;-32
2022/12/17 13:33:45;;;;;;;41.70;29.23;;;11.70;77.10;;;;;;4609707;19;20487;-33
2022/12/17 13:35:17;;;;;;;31.00;20.73;;;11.70;77.10;;;;;;4610113;19;20502;-32
2022/12/17 13:37:12;;;;;;;28.38;19.88;;;11.70;77.10;;;;;;4609963;19;20495;-34
2022/12/17 13:38:53;;;;;;;32.80;23.73;;;11.70;77.50;;;;;;4607938;19;20014;-32
2022/12/17 13:40:35;;;;;;;37.73;29.07;;;11.60;78.00;;;;;;4609747;19;20504;-30
2022/12/17 13:42:21;;;;;;;31.40;21.92;;;11.60;78.60;;;;;;4608995;19;20600;-33
2022/12/17 13:43:55;;;;;;;40.73;31.33;;;11.60;79.10;;;;;;4609688;19;20487;-32
2022/12/17 13:45:28;;;;;;;34.90;26.20;;;11.60;79.10;;;;;;4609473;19;20472;-33
2022/12/17 13:47:00;;;;;;;32.80;23.17;;;11.70;79.00;;;;;;4608539;19;20464;-34
2022/12/17 13:48:31;;;;;;;36.95;29.13;;;11.70;78.80;;;;;;4609883;19;21051;-34
2022/12/17 13:50:13;;;;;;;29.75;22.40;;;11.70;78.70;;;;;;4610037;19;20495;-31
2022/12/17 13:51:45;;;;;;;27.23;19.97;;;11.70;78.50;;;;;;4608968;19;20018;-32
2022/12/17 13:53:16;;;;;;;33.95;24.35;;;11.70;78.40;;;;;;4607811;19;20838;-33
2022/12/17 13:54:47;;;;;;;97.20;50.55;;;11.70;78.40;;;;;;4610482;19;20031;-33
2022/12/17 13:56:28;;;;;;;69.97;39.80;;;11.70;78.40;;;;;;4608721;19;20018;-33
2022/12/17 13:57:59;;;;;;;92.13;50.63;;;11.70;78.40;;;;;;4609767;19;20018;-31
2022/12/17 13:59:30;;;;;;;85.85;50.20;;;11.70;78.50;;;;;;4609420;19;20475;-32
2022/12/17 14:01:11;;;;;;;140.65;68.85;;;11.70;78.40;;;;;;4608408;19;20055;-31
2022/12/17 14:02:42;;;;;;;145.53;73.97;;;11.70;78.40;;;;;;4607239;19;20024;-30
2022/12/17 14:04:24;;;;;;;301.63;162.95;;;11.80;78.30;;;;;;4607888;19;20465;-33
2022/12/17 14:05:55;;;;;;;166.30;98.37;;;11.70;78.20;;;;;;4609490;19;20015;-29
2022/12/17 14:07:27;;;;;;;140.88;84.88;;;11.70;78.20;;;;;;4610519;19;21061;-30
2022/12/17 14:08:58;;;;;;;156.77;87.53;;;11.70;78.20;;;;;;4609882;19;20018;-33
2022/12/17 14:10:30;;;;;;;123.82;67.75;;;11.70;78.20;;;;;;4611472;19;20031;-28
2022/12/17 14:12:22;;;;;;;60.80;36.42;;;11.70;78.10;;;;;;4610726;19;20494;-29
2022/12/17 14:13:53;;;;;;;;;;;11.70;78.10;;;;;;4597942;19;20510;-28
2022/12/17 14:15:27;;;;;;;261.37;127.40;;;11.70;78.10;;;;;;4593786;19;19941;-29
2022/12/17 14:16:58;;;;;;;256.33;132.50;;;11.70;78.10;;;;;;4590930;19;20022;-29
2022/12/17 14:18:29;;;;;;;116.75;61.92;;;11.70;78.00;;;;;;4593477;19;20433;-27
2022/12/17 14:21:52;;;;;;;99.72;55.78;;;11.70;78.10;;;;;;4590148;19;20030;-29
2022/12/17 14:23:28;;;;;;;71.60;44.97;;;11.70;78.10;;;;;;4593304;19;20010;-28
2022/12/17 14:24:59;;;;;;;80.33;61.40;;;11.70;78.10;;;;;;4591185;19;20025;-28
2022/12/17 14:26:31;;;;;;;66.82;55.25;;;11.70;78.10;;;;;;4593218;19;20487;-27
2022/12/17 14:28:03;;;;;;;36.47;26.27;;;11.60;78.20;;;;;;4592577;19;20029;-30
2022/12/17 14:29:45;;;;;;;32.97;22.97;;;11.60;78.40;;;;;;4593232;19;20018;-32
2022/12/17 14:31:20;;;;;;;;;;;11.60;78.20;;;;;;4591664;19;21062;-29
2022/12/17 14:32:53;;;;;;;44.07;34.33;;;11.60;78.30;;;;;;4591835;19;19970;-30
2022/12/17 14:34:27;;;;;;;36.22;28.27;;;11.60;78.20;;;;;;4591052;19;20465;-27
2022/12/17 14:36:25;;;;;;;46.57;34.47;;;11.60;78.20;;;;;;4593214;19;20262;-29
2022/12/17 14:37:56;;;;;;;43.63;32.27;;;11.60;78.10;;;;;;4590239;19;20436;-30
2022/12/17 14:39:28;;;;;;;41.63;31.45;;;11.60;78.10;;;;;;4591676;19;20468;-28
2022/12/17 14:42:24;;;;;;;44.30;32.33;;;11.60;78.20;;;;;;4592099;19;20479;-28
2022/12/17 14:42:57;;;;;;;43.93;31.30;;;11.60;78.10;;;;;;4590180;19;20480;-29
2022/12/17 14:44:29;;;;;;;30.77;22.70;;;11.60;78.00;;;;;;4591426;19;20820;-28
2022/12/17 14:46:21;;;;;;;;;;;11.60;78.00;;;;;;4592291;19;20495;-30
2022/12/17 14:47:59;;;;;;;33.60;21.83;;;11.60;77.90;;;;;;4590389;19;19919;-27
2022/12/17 14:49:30;;;;;;;40.17;25.47;;;11.60;77.90;;;;;;4590421;19;20822;-29
2022/12/17 14:51:01;;;;;;;38.00;26.77;;;11.60;77.80;;;;;;4591074;19;20477;-28
2022/12/17 14:52:32;;;;;;;37.88;25.88;;;11.60;77.80;;;;;;4591543;19;20382;-27
2022/12/17 14:54:05;;;;;;;50.40;28.30;;;11.70;77.80;;;;;;4591457;19;20011;-28
2022/12/17 14:55:56;;;;;;;131.47;76.77;;;11.70;77.70;;;;;;4592318;19;21280;-29
2022/12/17 14:57:27;;;;;;;74.87;56.00;;;11.70;77.70;;;;;;4590743;19;20433;-29
2022/12/17 14:58:58;;;;;;;52.00;42.70;;;11.70;77.60;;;;;;4591936;19;20487;-30
2022/12/17 15:00:29;;;;;;;49.10;40.22;;;11.70;77.60;;;;;;4591654;19;20053;-31
2022/12/17 15:02:09;;;;;;;68.18;55.88;;;11.70;77.70;;;;;;4591771;19;20451;-29
2022/12/17 15:03:41;;;;;;;69.43;49.67;;;11.70;77.60;;;;;;4588478;19;20043;-29
2022/12/17 15:05:14;;;;;;;83.23;55.97;;;11.70;77.60;;;;;;4591818;19;20457;-29
2022/12/17 15:06:45;;;;;;;50.43;36.47;;;11.80;77.70;;;;;;4590470;19;20465;-27
2022/12/17 15:08:16;;;;;;;54.17;39.83;;;11.70;77.50;;;;;;4590350;19;20491;-30
2022/12/17 15:09:48;;;;;;;82.57;55.47;;;11.70;77.60;;;;;;4589815;19;20019;-29
2022/12/17 15:11:20;;;;;;;64.78;40.15;;;11.70;77.40;;;;;;4591519;19;20016;-29
2022/12/17 15:12:52;;;;;;;70.30;45.53;;;11.70;77.60;;;;;;4591545;19;20025;-30
2022/12/17 15:14:23;;;;;;;56.78;37.55;;;11.70;77.50;;;;;;4591350;19;20468;-31
2022/12/17 15:15:54;;;;;;;37.88;27.17;;;11.70;77.50;;;;;;4592033;19;20018;-29
2022/12/17 15:17:26;;;;;;;58.40;37.97;;;11.70;77.50;;;;;;4591620;19;20025;-28
2022/12/17 15:18:57;;;;;;;81.65;52.72;;;11.70;77.50;;;;;;4591928;19;20426;-30
2022/12/17 15:20:28;;;;;;;43.35;30.27;;;11.70;77.50;;;;;;4589300;19;20086;-31
2022/12/17 15:21:59;;;;;;;38.97;26.95;;;11.60;78.00;;;;;;4590501;19;20037;-29
2022/12/17 15:23:32;;;;;;;41.95;31.88;;;11.70;77.60;;;;;;4588908;19;20014;-28
2022/12/17 15:25:04;;;;;;;48.93;32.30;;;11.60;77.50;;;;;;4589216;19;20040;-29
2022/12/17 15:26:35;;;;;;;51.60;35.33;;;11.60;77.50;;;;;;4590355;19;20600;-30
2022/12/17 15:28:09;;;;;;;53.40;38.28;;;11.70;77.50;;;;;;4591000;19;20558;-28
2022/12/17 15:29:41;;;;;;;55.53;45.17;;;11.70;77.50;;;;;;4590438;19;20828;-28
2022/12/17 15:31:12;;;;;;;44.30;36.03;;;11.70;78.00;;;;;;4590281;19;20519;-29
2022/12/17 15:32:44;;;;;;;28.93;22.27;;;11.60;77.50;;;;;;4590533;19;20467;-27
2022/12/17 15:34:15;;;;;;;27.98;20.13;;;11.60;77.50;;;;;;4588713;19;20516;-32
2022/12/17 15:35:47;;;;;;;28.73;22.17;;;11.60;77.60;;;;;;4587138;19;20015;-30
2022/12/17 15:37:18;;;;;;;29.92;24.75;;;11.60;77.50;;;;;;4590414;19;20359;-30
2022/12/17 15:38:49;;;;;;;27.10;20.10;;;11.60;77.60;;;;;;4590005;19;20035;-30
2022/12/17 15:40:20;;;;;;;32.60;22.98;;;11.60;77.60;;;;;;4590421;19;20064;-30
2022/12/17 15:43:42;;;;;;;37.67;25.80;;;11.60;77.60;;;;;;4590460;19;20006;-28
2022/12/17 15:45:13;;;;;;;32.58;22.60;;;11.70;77.60;;;;;;4590970;19;20449;-32
2022/12/17 15:46:44;;;;;;;49.20;32.92;;;11.60;77.70;;;;;;4588017;19;20018;-27
2022/12/17 15:48:17;;;;;;;46.15;30.20;;;11.60;77.70;;;;;;4590685;19;20065;-27
2022/12/17 15:49:48;;;;;;;118.90;72.77;;;11.60;77.80;;;;;;4588595;19;20026;-29
2022/12/17 15:51:21;;;;;;;74.60;48.08;;;11.60;77.80;;;;;;4591153;19;20487;-31
2022/12/17 15:52:52;;;;;;;59.47;35.70;;;11.70;77.80;;;;;;4589392;19;20094;-29
2022/12/17 15:54:24;;;;;;;59.38;40.10;;;11.60;77.80;;;;;;4590059;19;20453;-29
2022/12/17 15:55:59;;;;;;;32.27;23.50;;;11.60;77.70;;;;;;4590263;19;20010;-29
2022/12/17 15:57:30;;;;;;;25.33;18.63;;;11.70;78.30;;;;;;4588495;19;21264;-31
2022/12/17 15:59:01;;;;;;;43.08;32.08;;;11.70;77.70;;;;;;4590727;19;20461;-28
2022/12/17 16:00:33;;;;;;;30.92;23.92;;;11.80;77.80;;;;;;4590945;19;20014;-29
2022/12/17 16:02:04;;;;;;;34.50;25.67;;;11.80;77.70;;;;;;4588995;19;20019;-30
2022/12/17 16:03:35;;;;;;;32.00;25.52;;;11.80;77.70;;;;;;4589861;19;20018;-28
2022/12/17 16:05:07;;;;;;;27.83;21.45;;;11.90;77.60;;;;;;4589183;19;20011;-29
2022/12/17 16:06:38;;;;;;;26.42;19.52;;;11.90;77.60;;;;;;4589064;19;20014;-28
2022/12/17 16:08:09;;;;;;;31.13;24.67;;;11.90;77.60;;;;;;4591415;19;20011;-30
2022/12/17 16:09:41;;;;;;;37.75;28.60;;;11.90;77.80;;;;;;4590087;19;20086;-29
2022/12/17 16:11:12;;;;;;;29.95;22.13;;;11.90;77.80;;;;;;4591135;19;20018;-29
2022/12/17 16:12:44;;;;;;;;;;;11.90;77.70;;;;;;4591111;19;20049;-28
2022/12/17 16:14:15;;;;;;;35.40;26.67;;;11.90;77.80;;;;;;4590906;19;19922;-26
2022/12/17 16:15:55;;;;;;;38.40;28.50;;;11.90;77.90;;;;;;4589664;19;20019;-31
2022/12/17 16:17:26;;;;;;;50.50;33.23;;;11.90;77.90;;;;;;4589070;19;20006;-28
2022/12/17 16:18:57;;;;;;;48.72;32.42;;;11.90;77.90;;;;;;4590641;19;20488;-30
2022/12/17 16:20:28;;;;;;;59.38;39.10;;;11.90;78.00;;;;;;4589740;19;20389;-30
2022/12/17 16:22:00;;;;;;;66.82;42.58;;;11.90;77.90;;;;;;4589827;19;20352;-29
2022/12/17 16:23:31;;;;;;;74.82;50.17;;;11.90;78.00;;;;;;4590097;19;20022;-32
2022/12/17 16:25:03;;;;;;;76.65;54.90;;;11.90;78.20;;;;;;4590349;19;20361;-27
2022/12/17 16:26:35;;;;;;;68.60;46.20;;;11.80;78.10;;;;;;4590089;19;20010;-30
2022/12/17 16:28:06;;;;;;;92.05;56.33;;;11.80;78.20;;;;;;4588991;19;20841;-30
2022/12/17 16:29:38;;;;;;;97.85;57.15;;;11.80;78.10;;;;;;4590756;19;20025;-30
2022/12/17 16:31:11;;;;;;;120.13;75.00;;;11.80;78.10;;;;;;4590217;19;20018;-27
2022/12/17 16:32:43;;;;;;;82.37;52.83;;;11.80;78.10;;;;;;4589948;19;20473;-30
2022/12/17 16:34:14;;;;;;;89.40;57.80;;;11.80;78.10;;;;;;4589382;19;20563;-33
2022/12/17 16:35:53;;;;;;;70.03;44.95;;;11.80;78.10;;;;;;4587455;19;20733;-33
2022/12/17 16:37:24;;;;;;;79.93;51.87;;;11.80;78.10;;;;;;4590219;19;20062;-29
2022/12/17 16:38:55;;;;;;;84.93;53.65;;;11.80;78.20;;;;;;4588314;19;20918;-30
2022/12/17 16:40:27;;;;;;;70.82;49.60;;;11.80;78.20;;;;;;4589887;19;20014;-30
2022/12/17 16:41:59;;;;;;;123.93;80.43;;;11.80;78.20;;;;;;4588808;19;20025;-30
2022/12/17 16:43:33;;;;;;;123.25;85.82;;;11.80;78.10;;;;;;4590756;19;20581;-29
2022/12/17 16:45:04;;;;;;;76.17;56.40;;;11.80;78.30;;;;;;4589644;19;20015;-29
2022/12/17 16:46:38;;;;;;;70.37;55.17;;;11.80;78.70;;;;;;4589112;19;20469;-30
2022/12/17 16:48:10;;;;;;;70.37;56.00;;;11.80;78.20;;;;;;4588926;19;20473;-27
2022/12/17 16:49:42;;;;;;;45.43;36.70;;;11.80;78.10;;;;;;4590419;19;20453;-29
2022/12/17 16:51:15;;;;;;;44.10;32.78;;;11.80;78.10;;;;;;4589305;19;20503;-30
2022/12/17 16:52:47;;;;;;;36.37;29.47;;;11.80;78.00;;;;;;4589245;19;20010;-30
2022/12/17 16:54:20;;;;;;;32.75;26.38;;;11.80;78.10;;;;;;4590387;19;20476;-29
2022/12/17 16:55:52;;;;;;;36.07;29.63;;;11.80;78.10;;;;;;4589637;19;20443;-32
2022/12/17 16:57:23;;;;;;;44.13;31.15;;;11.80;78.10;;;;;;4590111;19;20858;-31
2022/12/17 16:58:54;;;;;;;47.65;36.53;;;11.80;78.10;;;;;;4589259;19;20110;-30
2022/12/17 17:00:25;;;;;;;;;;;11.80;78.10;;;;;;4590896;19;20021;-30
2022/12/17 17:01:57;;;;;;;35.50;26.67;;;11.80;78.20;;;;;;4587600;19;19919;-30
2022/12/17 17:03:28;;;;;;;47.20;33.60;;;11.80;78.10;;;;;;4587436;19;20022;-30
2022/12/17 17:04:59;;;;;;;89.82;57.35;;;11.80;78.00;;;;;;4588068;19;20384;-30
2022/12/17 17:08:21;;;;;;;126.97;80.17;;;11.80;78.10;;;;;;4590190;19;20014;-31
2022/12/17 17:09:52;;;;;;;117.50;75.22;;;11.80;78.10;;;;;;4588524;19;21224;-30
2022/12/17 17:11:24;;;;;;;103.20;66.03;;;11.80;78.10;;;;;;4589385;19;20007;-29
2022/12/17 17:12:55;;;;;;;80.32;57.15;;;11.90;78.20;;;;;;4588095;19;20022;-32
2022/12/17 17:14:27;;;;;;;;;;;11.90;78.00;;;;;;4590399;19;20696;-29
2022/12/17 17:15:58;;;;;;;46.83;34.03;;;11.90;78.00;;;;;;4587618;19;19982;-32
2022/12/17 17:17:29;;;;;;;45.13;33.45;;;11.90;77.90;;;;;;4587861;19;20568;-33
2022/12/17 17:19:00;;;;;;;43.60;32.95;;;11.90;77.90;;;;;;4587959;19;20455;-31
2022/12/17 17:20:31;;;;;;;51.42;36.92;;;11.90;77.90;;;;;;4588325;19;20025;-32
2022/12/17 17:22:03;;;;;;;47.70;35.80;;;11.90;77.80;;;;;;4587368;19;20014;-33
2022/12/17 17:23:34;;;;;;;66.32;50.60;;;11.90;77.80;;;;;;4588250;19;20082;-29
2022/12/17 17:25:05;;;;;;;78.85;63.60;;;11.90;77.80;;;;;;4587585;19;20017;-30
2022/12/17 17:26:37;;;;;;;77.32;59.65;;;11.90;77.90;;;;;;4587658;19;20026;-30
2022/12/17 17:28:08;;;;;;;87.20;62.05;;;11.90;77.70;;;;;;4589272;19;20015;-33
2022/12/17 17:29:39;;;;;;;137.38;99.65;;;11.90;77.70;;;;;;4587987;19;20384;-33
2022/12/17 17:31:11;;;;;;;180.60;161.23;;;11.90;77.60;;;;;;4587945;19;20069;-30
2022/12/17 17:32:43;;;;;;;113.87;83.63;;;11.90;77.50;;;;;;4588798;19;20014;-35
2022/12/17 17:34:14;;;;;;;93.53;57.88;;;11.80;77.30;;;;;;4587454;19;20535;-30
2022/12/17 17:35:45;;;;;;;86.65;51.15;;;11.80;77.20;;;;;;4587470;19;20033;-32
2022/12/17 17:37:17;;;;;;;76.28;48.28;;;11.80;77.20;;;;;;4588785;19;20390;-33
2022/12/17 17:38:49;;;;;;;65.00;45.10;;;11.80;77.30;;;;;;4589201;19;20022;-34
2022/12/17 17:40:20;;;;;;;54.13;40.80;;;11.80;77.20;;;;;;4587233;19;20507;-30
2022/12/17 17:41:52;;;;;;;58.83;40.87;;;11.80;77.10;;;;;;4587281;19;20490;-31
2022/12/17 17:43:23;;;;;;;60.75;45.35;;;11.80;77.20;;;;;;4587712;19;20563;-31
2022/12/17 17:44:54;;;;;;;67.85;48.90;;;11.80;77.70;;;;;;4587698;19;20567;-29
2022/12/17 17:46:27;;;;;;;63.13;44.85;;;11.80;77.10;;;;;;4588734;19;20414;-30
2022/12/17 17:47:58;;;;;;;63.43;43.60;;;11.80;76.90;;;;;;4588154;19;20510;-31
2022/12/17 17:49:29;;;;;;;62.28;43.65;;;11.80;76.80;;;;;;4592364;19;20445;-27
2022/12/17 17:51:12;;;;;;;61.97;43.90;;;11.80;76.70;;;;;;4593605;19;20368;-31
2022/12/17 17:52:58;;;;;;;60.13;42.37;;;11.80;76.70;;;;;;4591244;19;20475;-29
2022/12/17 17:54:29;;;;;;;75.43;56.80;;;11.80;76.60;;;;;;4593854;19;20505;-32
2022/12/17 17:56:02;;;;;;;88.03;65.85;;;11.80;76.60;;;;;;4593258;19;20078;-31
2022/12/17 17:57:33;;;;;;;86.40;66.93;;;11.90;76.60;;;;;;4590295;19;20342;-29
2022/12/17 17:59:18;;;;;;;69.18;53.88;;;11.80;76.40;;;;;;4591200;19;20867;-29
2022/12/17 18:00:49;;;;;;;65.83;48.20;;;11.80;76.40;;;;;;4592792;19;20083;-28
2022/12/17 18:02:20;;;;;;;57.25;44.03;;;11.80;76.50;;;;;;4591364;19;20520;-33
2022/12/17 18:03:54;;;;;;;57.33;40.10;;;11.80;76.40;;;;;;4592051;19;20015;-29
2022/12/17 18:05:29;;;;;;;48.27;36.77;;;11.80;76.30;;;;;;4591289;19;20022;-30
2022/12/17 18:07:00;;;;;;;48.65;35.67;;;11.80;76.30;;;;;;4590119;19;20479;-31
2022/12/17 18:08:32;;;;;;;50.33;35.70;;;11.80;76.30;;;;;;4593573;19;20018;-30
2022/12/17 18:10:04;;;;;;;55.40;40.20;;;11.80;76.30;;;;;;4590926;19;20510;-30
2022/12/17 18:11:36;;;;;;;48.97;38.50;;;11.80;76.20;;;;;;4592446;19;20818;-31
2022/12/17 18:14:57;;;;;;;51.67;35.93;;;11.80;76.00;;;;;;4593194;19;20413;-33
2022/12/17 18:16:41;;;;;;;51.77;37.27;;;11.80;75.90;;;;;;4592458;19;21100;-29
2022/12/17 18:18:12;;;;;;;50.38;36.83;;;11.80;75.80;;;;;;4592345;19;20452;-31
2022/12/17 18:19:43;;;;;;;57.97;42.10;;;11.80;75.80;;;;;;4593160;19;20007;-30
2022/12/17 18:21:17;;;;;;;58.20;44.13;;;11.80;75.90;;;;;;4592589;19;20023;-30
2022/12/17 18:22:49;;;;;;;66.13;46.17;;;11.80;75.80;;;;;;4590921;19;20018;-29
2022/12/17 18:24:21;;;;;;;66.32;47.28;;;11.80;75.90;;;;;;4592951;19;20461;-30
2022/12/17 18:25:52;;;;;;;69.67;48.90;;;11.80;75.70;;;;;;4591538;19;20010;-28
2022/12/17 18:29:51;;;;;;;84.93;55.57;;;11.80;75.50;;;;;;4592731;19;20007;-31
2022/12/17 18:31:25;;;;;;;88.55;60.50;;;11.80;75.60;;;;;;4592148;19;20495;-29
2022/12/17 18:32:56;;;;;;;90.63;63.83;;;11.80;75.50;;;;;;4591047;19;20742;-29
2022/12/17 18:34:28;;;;;;;79.60;56.03;;;11.80;75.30;;;;;;4592949;19;20512;-31
2022/12/17 18:35:59;;;;;;;79.47;58.75;;;11.70;75.20;;;;;;4592215;19;20018;-32
2022/12/17 18:37:30;;;;;;;80.82;57.88;;;11.70;75.30;;;;;;4593209;19;20027;-29
2022/12/17 18:39:06;;;;;;;82.80;59.42;;;11.80;75.20;;;;;;4592270;19;20059;-30
2022/12/17 18:40:37;;;;;;;83.83;62.43;;;11.70;75.00;;;;;;4593284;19;20027;-32
2022/12/17 18:44:03;;;;;;;86.13;63.17;;;11.70;74.80;;;;;;4593577;19;20074;-32
2022/12/17 18:45:37;;;;;;;96.53;71.93;;;11.80;74.90;;;;;;4591870;19;20522;-29
2022/12/17 18:47:08;;;;;;;93.97;69.40;;;11.70;74.80;;;;;;4591335;19;20523;-31
2022/12/17 18:48:39;;;;;;;;;;;11.70;74.70;;;;;;4592014;19;20452;-32
2022/12/17 18:50:11;;;;;;;103.13;73.03;;;11.70;74.70;;;;;;4592429;19;19919;-31
2022/12/17 18:51:43;;;;;;;88.18;60.40;;;11.70;74.70;;;;;;4590669;19;20014;-31
2022/12/17 18:53:15;;;;;;;84.40;58.87;;;11.70;74.50;;;;;;4590912;19;20022;-31
2022/12/17 18:54:46;;;;;;;86.07;58.60;;;11.70;74.30;;;;;;4592925;19;20471;-31
2022/12/17 18:56:17;;;;;;;79.60;58.67;;;11.70;74.20;;;;;;4591874;19;20048;-30
2022/12/17 18:57:49;;;;;;;88.30;60.13;;;11.70;74.20;;;;;;4591918;19;20015;-29
2022/12/17 18:59:21;;;;;;;87.60;61.38;;;11.70;74.00;;;;;;4591492;19;20036;-32
2022/12/17 19:00:52;;;;;;;;;;;11.70;74.00;;;;;;4592908;19;20063;-30
2022/12/17 19:02:23;;;;;;;96.40;67.97;;;11.70;73.90;;;;;;4589757;19;20368;-32
2022/12/17 19:03:54;;;;;;;111.45;76.72;;;11.70;73.80;;;;;;4590958;19;20804;-34
2022/12/17 19:05:25;;;;;;;119.57;81.90;;;11.70;73.70;;;;;;4591911;19;20018;-32
2022/12/17 19:06:57;;;;;;;137.40;88.38;;;11.70;73.40;;;;;;4591344;19;20045;-28
2022/12/17 19:08:28;;;;;;;134.48;87.95;;;11.70;73.40;;;;;;4592009;19;20486;-31
2022/12/17 19:09:59;;;;;;;131.38;85.43;;;11.70;73.40;;;;;;4591508;19;20016;-34
2022/12/17 19:11:30;;;;;;;133.68;86.57;;;11.70;73.20;;;;;;4589141;19;20018;-30
2022/12/17 19:13:01;;;;;;;135.32;89.95;;;11.70;73.10;;;;;;4589904;19;20018;-30
2022/12/17 19:14:33;;;;;;;127.50;84.28;;;11.70;73.00;;;;;;4590761;19;20018;-30
2022/12/17 19:16:10;;;;;;;138.07;91.03;;;11.70;72.90;;;;;;4590581;19;20085;-30
2022/12/17 19:17:41;;;;;;;142.97;93.23;;;11.70;72.90;;;;;;4588660;19;20472;-29
2022/12/17 19:19:12;;;;;;;143.52;96.13;;;11.70;72.80;;;;;;4588642;19;20457;-32
2022/12/17 19:20:44;;;;;;;147.90;99.10;;;11.70;72.70;;;;;;4591706;19;20025;-30
2022/12/17 19:22:15;;;;;;;141.65;91.15;;;11.70;72.70;;;;;;4589877;19;20830;-31
2022/12/17 19:23:47;;;;;;;136.43;89.28;;;11.70;72.60;;;;;;4591771;19;20025;-29
2022/12/17 19:25:18;;;;;;;133.50;91.30;;;11.70;72.60;;;;;;4591125;19;20015;-30
2022/12/17 19:26:50;;;;;;;143.00;95.50;;;11.70;72.70;;;;;;4592550;19;20513;-29
2022/12/17 19:28:21;;;;;;;134.25;88.55;;;11.70;72.60;;;;;;4591563;19;20420;-30
2022/12/17 19:29:55;;;;;;;115.80;78.80;;;11.70;72.50;;;;;;4590086;19;20066;-30
2022/12/17 19:31:27;;;;;;;119.67;82.10;;;11.70;72.60;;;;;;4591239;19;20019;-30
2022/12/17 19:32:58;;;;;;;112.60;75.97;;;11.70;72.50;;;;;;4591103;19;20507;-30
2022/12/17 19:34:31;;;;;;;114.32;78.97;;;11.70;72.50;;;;;;4591253;19;20528;-31
2022/12/17 19:36:03;;;;;;;125.67;90.23;;;11.70;72.50;;;;;;4590467;19;20015;-31
2022/12/17 19:37:34;;;;;;;117.40;85.20;;;11.70;72.50;;;;;;4592016;19;20467;-31
2022/12/17 19:39:07;;;;;;;112.43;74.72;;;11.70;72.40;;;;;;4590398;19;20563;-30
2022/12/17 19:40:38;;;;;;;124.73;87.00;;;11.60;72.20;;;;;;4590821;19;20018;-32
2022/12/17 19:42:23;;;;;;;138.15;96.10;;;11.70;72.10;;;;;;4590881;19;20489;-31
2022/12/17 19:43:57;;;;;;;126.07;91.87;;;11.60;72.10;;;;;;4591451;19;20018;-30
2022/12/17 19:45:28;;;;;;;125.53;90.27;;;11.60;72.10;;;;;;4592060;19;20461;-31
2022/12/17 19:46:59;;;;;;;122.28;87.68;;;11.70;72.00;;;;;;4590140;19;20533;-29
2022/12/17 19:48:31;;;;;;;125.18;89.43;;;11.60;71.80;;;;;;4591711;19;20034;-32
2022/12/17 19:50:03;;;;;;;122.80;88.13;;;11.60;71.80;;;;;;4590870;19;20508;-30
2022/12/17 19:51:34;;;;;;;119.10;84.53;;;11.60;71.80;;;;;;4589917;19;20452;-31
2022/12/17 19:53:05;;;;;;;116.47;80.55;;;11.60;71.60;;;;;;4592424;19;20019;-31
2022/12/17 19:54:36;;;;;;;130.07;92.45;;;11.60;71.60;;;;;;4590894;19;20030;-30
2022/12/17 19:56:27;;;;;;;136.80;90.88;;;11.60;71.50;;;;;;4591006;19;20078;-30
2022/12/17 19:57:58;;;;;;;137.53;93.40;;;11.60;71.40;;;;;;4590303;19;20007;-30
2022/12/17 19:59:29;;;;;;;165.52;114.05;;;11.60;71.40;;;;;;4592308;19;20463;-29
2022/12/17 20:01:11;;;;;;;211.55;142.93;;;11.60;71.30;;;;;;4592029;19;20025;-29
2022/12/17 20:02:42;;;;;;;;;;;11.60;71.40;;;;;;4590335;19;20018;-30
2022/12/17 20:04:14;;;;;;;279.80;159.90;;;11.60;71.30;;;;;;4590776;19;19978;-30
2022/12/17 20:05:46;;;;;;;182.27;119.23;;;11.60;71.20;;;;;;4591092;19;20432;-30
2022/12/17 20:07:17;;;;;;;;;;;11.60;71.20;;;;;;4591102;19;20453;-29
2022/12/17 20:08:49;;;;;;;236.17;128.23;;;11.60;71.20;;;;;;4590607;19;19922;-30
2022/12/17 20:10:20;;;;;;;199.47;119.33;;;11.60;71.20;;;;;;4590885;19;20015;-30
2022/12/17 20:11:52;;;;;;;178.48;109.45;;;11.60;71.10;;;;;;4589993;19;20814;-30
2022/12/17 20:13:23;;;;;;;228.48;128.85;;;11.60;71.00;;;;;;4591427;19;19998;-30
2022/12/17 20:14:54;;;;;;;223.18;130.25;;;11.60;71.10;;;;;;4591188;19;20010;-30
2022/12/17 20:16:26;;;;;;;312.25;167.18;;;11.60;71.20;;;;;;4591410;19;20169;-30
2022/12/17 20:17:57;;;;;;;;;;;11.60;71.30;;;;;;4591707;19;20002;-31
2022/12/17 20:19:29;;;;;;;267.03;150.00;;;11.60;71.20;;;;;;4590219;19;19934;-30
2022/12/17 20:21:04;;;;;;;315.00;172.80;;;11.60;71.20;;;;;;4589941;19;20039;-29
2022/12/17 20:22:35;;;;;;;;;;;11.70;71.10;;;;;;4589284;19;21071;-30
2022/12/17 20:24:07;;;;;;;386.43;209.80;;;11.70;71.10;;;;;;4589859;19;19937;-29
2022/12/17 20:25:38;;;;;;;378.27;210.30;;;11.70;71.10;;;;;;4588682;19;20011;-29
2022/12/17 20:27:09;;;;;;;338.02;193.23;;;11.70;70.90;;;;;;4589618;19;20325;-28
2022/12/17 20:28:40;;;;;;;315.92;184.15;;;11.70;70.90;;;;;;4588754;19;20015;-30
2022/12/17 20:30:12;;;;;;;291.50;178.57;;;11.70;70.80;;;;;;4589066;19;20007;-28
2022/12/17 20:31:43;;;;;;;293.55;181.60;;;11.70;70.70;;;;;;4589206;19;20015;-30
2022/12/17 20:33:14;;;;;;;307.77;183.98;;;11.70;70.70;;;;;;4589425;19;20010;-30
2022/12/17 20:34:46;;;;;;;221.32;140.13;;;11.80;70.70;;;;;;4589376;19;20006;-32
2022/12/17 20:36:17;;;;;;;215.63;146.85;;;11.70;70.60;;;;;;4589363;19;20022;-29
2022/12/17 20:37:49;;;;;;;237.23;161.80;;;11.70;70.60;;;;;;4588667;19;20006;-29
2022/12/17 20:39:20;;;;;;;238.20;159.70;;;11.70;70.70;;;;;;4589382;19;20964;-30
2022/12/17 20:40:51;;;;;;;275.52;173.90;;;11.70;70.70;;;;;;4589575;19;20011;-29
2022/12/17 20:42:22;;;;;;;293.85;171.95;;;11.70;70.60;;;;;;4588203;19;20340;-29
2022/12/17 20:43:54;;;;;;;275.08;148.27;;;11.70;70.60;;;;;;4589142;19;20018;-30
2022/12/17 20:45:25;;;;;;;265.90;151.95;;;11.70;70.60;;;;;;4588688;19;20014;-29
2022/12/17 20:46:56;;;;;;;246.75;139.48;;;11.70;70.60;;;;;;4589617;19;20014;-30
2022/12/17 20:48:27;;;;;;;;;;;11.70;70.60;;;;;;4590344;19;20020;-28
2022/12/17 20:49:58;;;;;;;209.53;114.53;;;11.70;70.60;;;;;;4589353;19;20289;-31
2022/12/17 20:51:32;;;;;;;165.75;100.57;;;11.70;70.70;;;;;;4589665;19;20010;-30
2022/12/17 20:53:03;;;;;;;154.00;100.13;;;11.70;70.60;;;;;;4589833;19;20018;-28
2022/12/17 20:54:34;;;;;;;162.18;108.55;;;11.70;70.60;;;;;;4589349;19;20516;-29
2022/12/17 20:56:10;;;;;;;142.10;96.78;;;11.70;70.60;;;;;;4589380;19;20011;-29
2022/12/17 20:57:41;;;;;;;139.17;97.47;;;11.70;70.60;;;;;;4588421;19;20022;-32
2022/12/17 20:59:14;;;;;;;129.90;88.40;;;11.80;70.60;;;;;;4588271;19;20433;-32
2022/12/17 21:00:45;;;;;;;137.13;91.40;;;11.70;70.40;;;;;;4588930;19;20015;-32
2022/12/17 21:02:16;;;;;;;144.02;95.53;;;11.70;70.30;;;;;;4588970;19;20515;-30
2022/12/17 21:03:50;;;;;;;157.35;106.05;;;11.70;70.40;;;;;;4588640;19;20518;-28
2022/12/17 21:05:21;;;;;;;151.03;102.43;;;11.70;71.10;;;;;;4589089;19;20479;-31
2022/12/17 21:06:52;;;;;;;148.80;96.50;;;11.70;70.90;;;;;;4589090;19;20759;-30
2022/12/17 21:08:23;;;;;;;137.93;94.78;;;11.70;71.40;;;;;;4589125;19;20014;-28
2022/12/17 21:09:54;;;;;;;141.73;95.75;;;11.70;71.70;;;;;;4589555;19;20021;-29
2022/12/17 21:11:27;;;;;;;135.45;92.47;;;11.70;71.90;;;;;;4589236;19;20011;-30